createdAt,value
2023-05-08T00:01:19.800Z,101817.25
2023-05-08T00:03:46.373Z,101808.56
2023-05-08T00:06:13.025Z,101815.50
2023-05-08T00:08:39.569Z,101802.75
2023-05-08T00:11:06.068Z,101807.34
2023-05-08T00:13:32.510Z,101811.78
2023-05-08T00:15:59.048Z,101810.41
2023-05-08T00:18:25.596Z,101819.59
2023-05-08T00:20:52.066Z,101815.84
2023-05-08T00:23:18.564Z,101810.06
2023-05-08T00:25:45.012Z,101807.66
2023-05-08T00:28:11.446Z,101796.09
2023-05-08T00:30:37.877Z,101798.69
2023-05-08T00:33:04.542Z,101796.78
2023-05-08T00:35:31.068Z,101795.78
2023-05-08T00:37:57.500Z,101793.25
2023-05-08T00:40:24.153Z,101796.09
2023-05-08T00:42:50.620Z,101801.56
2023-05-08T00:45:17.064Z,101794.22
2023-05-08T00:47:43.741Z,101797.63
2023-05-08T00:50:11.171Z,101795.59
2023-05-08T00:52:38.459Z,101805.09
2023-05-08T00:55:05.691Z,101800.53
2023-05-08T00:57:35.664Z,101806.81
2023-05-08T01:00:04.571Z,101798.47
2023-05-08T01:02:32.067Z,101802.56
2023-05-08T01:04:58.982Z,101792.03
2023-05-08T01:07:25.990Z,101796.25
2023-05-08T01:09:52.432Z,101788.78
2023-05-08T01:12:34.958Z,101795.94
2023-05-08T01:15:21.410Z,101799.97
2023-05-08T01:18:12.902Z,101799.16
2023-05-08T01:20:46.866Z,101792.84
2023-05-08T01:23:15.975Z,101788.44
2023-05-08T01:25:55.933Z,101797.63
2023-05-08T01:28:37.418Z,101801.50
2023-05-08T01:31:22.312Z,101792.66
2023-05-08T01:34:12.072Z,101796.88
2023-05-08T01:36:51.041Z,101786.69
2023-05-08T01:39:20.125Z,101797.56
2023-05-08T01:42:43.456Z,101794.66
2023-05-08T01:45:21.128Z,101791.91
2023-05-08T01:47:53.504Z,101789.06
2023-05-08T01:50:25.668Z,101785.47
2023-05-08T01:52:58.708Z,101789.22
2023-05-08T01:55:30.609Z,101794.81
2023-05-08T01:57:58.812Z,101795.16
2023-05-08T02:00:28.555Z,101801.25
2023-05-08T02:02:56.034Z,101804.34
2023-05-08T02:05:24.404Z,101798.75
2023-05-08T02:07:51.772Z,101801.78
2023-05-08T02:10:22.791Z,101813.16
2023-05-08T02:12:50.288Z,101811.47
2023-05-08T02:15:17.748Z,101803.34
2023-05-08T02:17:48.560Z,101803.00
2023-05-08T02:20:16.188Z,101809.81
2023-05-08T02:22:45.255Z,101812.69
2023-05-08T02:25:14.806Z,101811.50
2023-05-08T02:27:46.230Z,101810.66
2023-05-08T02:30:15.302Z,101812.81
2023-05-08T02:32:46.518Z,101818.09
2023-05-08T02:35:14.823Z,101818.47
2023-05-08T02:37:44.104Z,101817.78
2023-05-08T02:40:12.963Z,101822.03
2023-05-08T02:42:40.321Z,101809.63
2023-05-08T02:45:07.638Z,101808.44
2023-05-08T02:47:51.759Z,101820.13
2023-05-08T02:50:24.301Z,101825.56
2023-05-08T02:52:54.449Z,101828.44
2023-05-08T02:55:20.895Z,101829.13
2023-05-08T02:58:05.671Z,101829.31
2023-05-08T03:00:37.775Z,101821.75
2023-05-08T03:03:12.186Z,101817.00
2023-05-08T03:05:43.052Z,101823.94
2023-05-08T03:08:18.360Z,101820.91
2023-05-08T03:10:49.215Z,101816.63
2023-05-08T03:13:17.586Z,101813.91
2023-05-08T03:15:54.184Z,101807.63
2023-05-08T03:18:24.524Z,101811.34
2023-05-08T03:20:54.480Z,101809.50
2023-05-08T03:23:23.519Z,101809.13
2023-05-08T03:25:51.562Z,101808.44
2023-05-08T03:28:18.340Z,101807.38
2023-05-08T03:30:45.915Z,101814.72
2023-05-08T03:33:12.742Z,101812.00
2023-05-08T03:35:39.795Z,101807.72
2023-05-08T03:38:07.862Z,101806.53
2023-05-08T03:40:38.899Z,101800.94
2023-05-08T03:43:09.346Z,101794.66
2023-05-08T03:45:37.540Z,101795.69
2023-05-08T03:48:05.801Z,101791.78
2023-05-08T03:50:34.463Z,101798.41
2023-05-08T03:53:01.186Z,101794.31
2023-05-08T03:55:27.869Z,101793.47
2023-05-08T03:58:01.140Z,101801.09
2023-05-08T04:00:37.453Z,101802.31
2023-05-08T04:03:24.979Z,101800.06
2023-05-08T04:06:03.198Z,101799.06
2023-05-08T04:08:34.433Z,101797.00
2023-05-08T04:11:17.416Z,101800.03
2023-05-08T04:13:50.666Z,101799.91
2023-05-08T04:16:21.658Z,101807.50
2023-05-08T04:18:50.777Z,101809.22
2023-05-08T04:21:20.543Z,101805.97
2023-05-08T04:23:49.924Z,101810.53
2023-05-08T04:26:18.200Z,101803.06
2023-05-08T04:28:46.836Z,101811.44
2023-05-08T04:31:16.275Z,101801.69
2023-05-08T04:33:46.608Z,101795.78
2023-05-08T04:36:14.272Z,101806.72
2023-05-08T04:38:41.163Z,101810.81
2023-05-08T04:41:08.134Z,101806.41
2023-05-08T04:43:35.664Z,101805.59
2023-05-08T04:46:04.456Z,101806.00
2023-05-08T04:48:33.165Z,101805.78
2023-05-08T04:51:00.321Z,101811.13
2023-05-08T04:53:26.982Z,101822.25
2023-05-08T04:55:53.463Z,101824.81
2023-05-08T04:58:20.109Z,101827.06
2023-05-08T05:00:46.571Z,101832.00
2023-05-08T05:03:13.083Z,101827.06
2023-05-08T05:05:39.656Z,101824.34
2023-05-08T05:08:06.129Z,101823.66
2023-05-08T05:10:32.561Z,101825.56
2023-05-08T05:12:59.022Z,101827.09
2023-05-08T05:15:25.489Z,101821.63
2023-05-08T05:17:52.035Z,101832.34
2023-05-08T05:20:18.621Z,101825.44
2023-05-08T05:22:45.044Z,101825.16
2023-05-08T05:25:12.497Z,101826.03
2023-05-08T05:27:39.283Z,101836.09
2023-05-08T05:30:06.971Z,101841.91
2023-05-08T05:32:33.537Z,101842.66
2023-05-08T05:35:00.168Z,101838.75
2023-05-08T05:37:26.885Z,101844.09
2023-05-08T05:39:53.558Z,101838.13
2023-05-08T05:42:20.095Z,101837.63
2023-05-08T05:44:46.557Z,101842.22
2023-05-08T05:47:13.159Z,101844.25
2023-05-08T05:49:43.050Z,101847.84
2023-05-08T05:52:09.598Z,101852.28
2023-05-08T05:54:36.051Z,101854.97
2023-05-08T05:57:02.542Z,101856.34
2023-05-08T05:59:28.933Z,101857.84
2023-05-08T06:01:55.395Z,101858.19
2023-05-08T06:04:21.906Z,101854.16
2023-05-08T06:06:48.397Z,101853.56
2023-05-08T06:09:15.896Z,101850.19
2023-05-08T06:11:42.475Z,101849.00
2023-05-08T06:14:08.979Z,101845.09
2023-05-08T06:16:35.723Z,101846.78
2023-05-08T06:19:02.297Z,101848.88
2023-05-08T06:21:28.848Z,101846.66
2023-05-08T06:23:55.383Z,101833.75
2023-05-08T06:26:23.489Z,101841.25
2023-05-08T06:28:50.115Z,101835.13
2023-05-08T06:31:16.522Z,101824.22
2023-05-08T06:33:43.018Z,101836.66
2023-05-08T06:36:09.785Z,101835.59
2023-05-08T06:38:36.235Z,101835.44
2023-05-08T06:41:02.677Z,101824.53
2023-05-08T06:43:30.589Z,101824.88
2023-05-08T06:45:57.228Z,101829.28
2023-05-08T06:48:23.729Z,101825.38
2023-05-08T06:50:51.710Z,101826.19
2023-05-08T06:53:18.187Z,101829.91
2023-05-08T06:55:44.770Z,101826.78
2023-05-08T06:58:11.373Z,101826.16
2023-05-08T07:00:37.872Z,101826.47
2023-05-08T07:03:04.561Z,101821.31
2023-05-08T07:05:31.048Z,101822.50
2023-05-08T07:07:57.552Z,101819.13
2023-05-08T07:10:24.039Z,101821.75
2023-05-08T07:12:52.053Z,101823.25
2023-05-08T07:17:51.112Z,101825.34
2023-05-08T07:20:17.783Z,101819.34
2023-05-08T07:22:44.209Z,101820.31
2023-05-08T07:25:10.871Z,101828.69
2023-05-08T07:27:37.474Z,101829.56
2023-05-08T07:30:04.456Z,101834.75
2023-05-08T07:32:33.766Z,101836.47
2023-05-08T07:35:00.527Z,101838.28
2023-05-08T07:37:27.147Z,101835.88
2023-05-08T07:39:53.669Z,101838.09
2023-05-08T07:42:21.243Z,101841.78
2023-05-08T07:44:54.391Z,101846.75
2023-05-08T07:47:21.637Z,101852.81
2023-05-08T07:49:48.094Z,101853.56
2023-05-08T07:52:14.567Z,101838.03
2023-05-08T07:54:41.046Z,101839.91
2023-05-08T07:57:07.510Z,101838.81
2023-05-08T07:59:33.955Z,101839.91
2023-05-08T08:02:00.380Z,101836.78
2023-05-08T08:04:27.796Z,101824.19
2023-05-08T08:06:55.203Z,101824.84
2023-05-08T08:09:21.728Z,101807.63
2023-05-08T08:11:48.181Z,101822.03
2023-05-08T08:14:14.667Z,101815.88
2023-05-08T08:16:42.415Z,101804.88
2023-05-08T08:19:08.972Z,101818.94
2023-05-08T08:21:35.407Z,101818.44
2023-05-08T08:24:02.040Z,101832.38
2023-05-08T08:26:28.484Z,101831.97
2023-05-08T08:28:54.982Z,101833.84
2023-05-08T08:31:21.497Z,101829.72
2023-05-08T08:33:47.947Z,101827.50
2023-05-08T08:36:15.430Z,101826.41
2023-05-08T08:38:42.283Z,101818.56
2023-05-08T08:41:08.919Z,101830.31
2023-05-08T08:43:35.453Z,101831.81
2023-05-08T08:46:10.203Z,101825.06
2023-05-08T08:48:37.978Z,101828.44
2023-05-08T08:51:13.797Z,101824.91
2023-05-08T08:53:44.480Z,101820.41
2023-05-08T08:56:12.248Z,101814.97
2023-05-08T08:58:46.836Z,101819.44
2023-05-08T09:01:17.816Z,101815.25
2023-05-08T09:03:44.939Z,101810.63
2023-05-08T09:06:14.052Z,101798.19
2023-05-08T09:08:41.214Z,101798.06
2023-05-08T09:11:07.782Z,101783.31
2023-05-08T09:13:34.383Z,101784.47
2023-05-08T09:16:01.129Z,101781.41
2023-05-08T09:18:27.660Z,101790.22
2023-05-08T09:20:54.468Z,101787.88
2023-05-08T09:23:21.134Z,101793.13
2023-05-08T09:25:48.802Z,101806.16
2023-05-08T09:28:23.979Z,101799.34
2023-05-08T09:30:53.500Z,101805.72
2023-05-08T09:33:21.327Z,101811.69
2023-05-08T09:35:48.658Z,101810.53
2023-05-08T09:38:30.168Z,101797.06
2023-05-08T09:41:14.831Z,101800.69
2023-05-08T09:43:45.381Z,101811.59
2023-05-08T09:46:26.710Z,101817.13
2023-05-08T09:48:55.831Z,101815.78
2023-05-08T09:51:23.508Z,101811.94
2023-05-08T09:53:54.555Z,101809.56
2023-05-08T09:56:37.836Z,101799.69
2023-05-08T09:59:06.586Z,101808.25
2023-05-08T10:01:35.108Z,101800.09
2023-05-08T10:04:03.696Z,101798.91
2023-05-08T10:06:30.342Z,101802.53
2023-05-08T10:09:28.897Z,101799.00
2023-05-08T10:12:03.654Z,101797.84
2023-05-08T10:14:30.160Z,101796.06
2023-05-08T10:17:00.907Z,101795.81
2023-05-08T10:19:28.765Z,101802.13
2023-05-08T10:21:56.460Z,101800.31
2023-05-08T10:24:33.551Z,101811.75
2023-05-08T10:27:17.668Z,101811.16
2023-05-08T10:29:54.940Z,101815.63
2023-05-08T10:32:23.058Z,101814.53
2023-05-08T10:34:56.293Z,101813.22
2023-05-08T10:37:22.837Z,101823.41
2023-05-08T10:39:49.519Z,101811.09
2023-05-08T10:42:16.814Z,101816.28
2023-05-08T10:44:44.011Z,101810.81
2023-05-08T10:47:27.881Z,101815.91
2023-05-08T10:50:36.792Z,101818.09
2023-05-08T10:53:26.568Z,101812.72
2023-05-08T10:55:55.438Z,101800.34
2023-05-08T10:58:37.175Z,101786.50
2023-05-08T11:01:09.855Z,101784.50
2023-05-08T11:03:47.801Z,101785.94
2023-05-08T11:06:14.904Z,101775.31
2023-05-08T11:08:54.695Z,101781.84
2023-05-08T11:11:33.490Z,101779.28
2023-05-08T11:14:11.879Z,101784.25
2023-05-08T11:16:53.529Z,101781.72
2023-05-08T11:19:24.858Z,101787.97
2023-05-08T11:22:23.736Z,101773.41
2023-05-08T11:25:10.205Z,101769.53
2023-05-08T11:27:49.922Z,101768.88
2023-05-08T11:30:19.151Z,101765.28
2023-05-08T11:33:04.589Z,101766.56
2023-05-08T11:35:51.679Z,101760.78
2023-05-08T11:38:36.151Z,101766.97
2023-05-08T11:41:23.007Z,101762.31
2023-05-08T11:44:04.959Z,101761.31
2023-05-08T11:46:42.868Z,101757.53
2023-05-08T11:49:14.429Z,101756.44
2023-05-08T11:51:44.895Z,101742.88
2023-05-08T11:54:14.172Z,101745.28
2023-05-08T11:56:40.788Z,101742.75
2023-05-08T11:59:09.399Z,101742.09
2023-05-08T12:01:36.369Z,101738.63
2023-05-08T12:04:11.679Z,101735.50
2023-05-08T12:06:41.174Z,101746.50
2023-05-08T12:09:13.111Z,101744.59
2023-05-08T12:11:43.528Z,101746.41
2023-05-08T12:14:10.971Z,101749.41
2023-05-08T12:16:38.946Z,101751.56
2023-05-08T12:19:13.348Z,101745.75
2023-05-08T12:21:47.632Z,101746.50
2023-05-08T12:24:16.505Z,101745.97
2023-05-08T12:26:42.995Z,101743.28
2023-05-08T12:29:09.593Z,101742.47
2023-05-08T12:31:36.504Z,101750.94
2023-05-08T12:34:04.992Z,101744.88
2023-05-08T12:36:38.123Z,101741.53
2023-05-08T12:39:16.395Z,101736.31
2023-05-08T12:41:50.562Z,101739.09
2023-05-08T12:44:26.613Z,101726.72
2023-05-08T12:46:55.540Z,101725.75
2023-05-08T12:49:29.969Z,101736.63
2023-05-08T12:52:07.841Z,101729.41
2023-05-08T12:54:39.522Z,101724.41
2023-05-08T12:57:19.596Z,101726.22
2023-05-08T12:59:46.609Z,101718.09
2023-05-08T13:02:17.843Z,101710.75
2023-05-08T13:04:45.455Z,101713.81
2023-05-08T13:07:12.182Z,101707.22
2023-05-08T13:09:39.482Z,101707.56
2023-05-08T13:12:08.808Z,101699.94
2023-05-08T13:14:35.301Z,101696.81
2023-05-08T13:17:02.119Z,101702.34
2023-05-08T13:19:28.756Z,101700.16
2023-05-08T13:21:55.299Z,101707.44
2023-05-08T13:24:21.732Z,101701.91
2023-05-08T13:26:48.250Z,101702.56
2023-05-08T13:29:14.828Z,101691.03
2023-05-08T13:31:41.316Z,101689.69
2023-05-08T13:34:07.869Z,101695.53
2023-05-08T13:36:34.353Z,101688.13
2023-05-08T13:39:00.855Z,101680.25
2023-05-08T13:41:27.274Z,101686.78
2023-05-08T13:43:53.753Z,101669.22
2023-05-08T13:46:20.322Z,101673.34
2023-05-08T13:48:46.833Z,101665.78
2023-05-08T13:51:13.300Z,101671.63
2023-05-08T13:53:39.760Z,101670.81
2023-05-08T13:56:06.503Z,101677.56
2023-05-08T13:58:33.022Z,101670.50
2023-05-08T14:01:01.576Z,101664.50
2023-05-08T14:03:34.129Z,101666.03
2023-05-08T14:06:00.701Z,101681.53
2023-05-08T14:08:27.133Z,101663.88
2023-05-08T14:10:53.961Z,101676.75
2023-05-08T14:13:20.698Z,101672.34
2023-05-08T14:15:47.281Z,101662.22
2023-05-08T14:18:13.885Z,101672.84
2023-05-08T14:20:40.606Z,101665.25
2023-05-08T14:23:07.168Z,101676.13
2023-05-08T14:25:33.742Z,101665.69
2023-05-08T14:28:00.290Z,101664.94
2023-05-08T14:30:26.881Z,101661.03
2023-05-08T14:32:53.625Z,101653.91
2023-05-08T14:35:20.178Z,101657.06
2023-05-08T14:37:46.607Z,101650.44
2023-05-08T14:40:13.206Z,101654.03
2023-05-08T14:42:39.629Z,101651.25
2023-05-08T14:45:06.697Z,101650.84
2023-05-08T14:47:33.858Z,101646.88
2023-05-08T14:50:00.421Z,101644.31
2023-05-08T14:52:26.945Z,101646.25
2023-05-08T14:54:53.939Z,101645.31
2023-05-08T14:57:20.883Z,101645.75
2023-05-08T14:59:55.145Z,101651.69
2023-05-08T15:02:23.191Z,101645.03
2023-05-08T15:04:49.861Z,101641.06
2023-05-08T15:07:16.303Z,101648.25
2023-05-08T15:09:42.843Z,101651.63
2023-05-08T15:12:09.400Z,101654.31
2023-05-08T15:14:35.972Z,101648.38
2023-05-08T15:17:02.484Z,101643.44
2023-05-08T15:19:28.935Z,101642.03
2023-05-08T15:21:55.534Z,101640.09
2023-05-08T15:24:21.954Z,101634.47
2023-05-08T15:26:48.481Z,101639.47
2023-05-08T15:29:14.876Z,101633.13
2023-05-08T15:31:41.356Z,101637.03
2023-05-08T15:34:07.876Z,101632.69
2023-05-08T15:36:35.292Z,101634.34
2023-05-08T15:39:01.798Z,101638.81
2023-05-08T15:41:28.293Z,101633.78
2023-05-08T15:43:54.735Z,101632.03
2023-05-08T15:46:21.416Z,101636.28
2023-05-08T15:48:48.341Z,101635.25
2023-05-08T15:51:14.896Z,101635.09
2023-05-08T15:53:41.409Z,101631.28
2023-05-08T15:56:07.881Z,101629.00
2023-05-08T15:58:36.637Z,101631.16
2023-05-08T16:01:04.820Z,101636.00
2023-05-08T16:03:32.214Z,101629.00
2023-05-08T16:05:58.793Z,101635.81
2023-05-08T16:08:25.261Z,101632.19
2023-05-08T16:10:54.644Z,101644.03
2023-05-08T16:13:21.345Z,101637.91
2023-05-08T16:15:47.938Z,101638.75
2023-05-08T16:18:14.449Z,101643.38
2023-05-08T16:20:41.811Z,101638.34
2023-05-08T16:23:08.374Z,101635.81
2023-05-08T16:25:34.849Z,101636.19
2023-05-08T16:28:01.384Z,101639.59
2023-05-08T16:30:27.850Z,101631.78
2023-05-08T16:32:57.386Z,101639.81
2023-05-08T16:35:23.896Z,101641.69
2023-05-08T16:37:50.369Z,101642.13
2023-05-08T16:40:16.805Z,101644.63
2023-05-08T16:42:43.349Z,101639.38
2023-05-08T16:45:10.387Z,101636.84
2023-05-08T16:47:36.915Z,101631.78
2023-05-08T16:50:04.582Z,101622.06
2023-05-08T16:52:32.788Z,101622.03
2023-05-08T16:54:59.250Z,101627.97
2023-05-08T16:57:25.841Z,101630.06
2023-05-08T16:59:52.273Z,101625.19
2023-05-08T17:02:19.297Z,101618.03
2023-05-08T17:04:47.224Z,101622.06
2023-05-08T17:07:15.071Z,101611.06
2023-05-08T17:09:42.051Z,101612.31
2023-05-08T17:12:08.975Z,101606.63
2023-05-08T17:14:37.014Z,101603.03
2023-05-08T17:17:03.446Z,101598.81
2023-05-08T17:19:29.907Z,101603.25
2023-05-08T17:21:58.193Z,101613.16
2023-05-08T17:24:26.233Z,101617.94
2023-05-08T17:26:52.699Z,101621.31
2023-05-08T17:29:19.097Z,101630.66
2023-05-08T17:31:45.630Z,101635.31
2023-05-08T17:34:12.085Z,101626.63
2023-05-08T17:36:38.609Z,101626.19
2023-05-08T17:39:05.101Z,101626.53
2023-05-08T17:41:31.594Z,101635.63
2023-05-08T17:43:58.059Z,101640.47
2023-05-08T17:46:24.563Z,101647.53
2023-05-08T17:48:50.997Z,101647.56
2023-05-08T17:51:17.530Z,101650.06
2023-05-08T17:53:44.448Z,101656.19
2023-05-08T17:56:10.958Z,101662.00
2023-05-08T17:58:37.401Z,101660.91
2023-05-08T18:01:03.928Z,101658.78
2023-05-08T18:03:31.801Z,101661.81
2023-05-08T18:05:58.424Z,101658.19
2023-05-08T18:08:24.915Z,101658.56
2023-05-08T18:10:51.491Z,101655.84
2023-05-08T18:13:18.053Z,101657.09
2023-05-08T18:15:44.547Z,101647.75
2023-05-08T18:18:11.010Z,101645.34
2023-05-08T18:20:37.471Z,101645.81
2023-05-08T18:23:04.019Z,101642.91
2023-05-08T18:25:30.521Z,101652.69
2023-05-08T18:27:58.837Z,101651.69
2023-05-08T18:30:25.293Z,101656.53
2023-05-08T18:32:53.552Z,101648.94
2023-05-08T18:35:21.652Z,101650.09
2023-05-08T18:37:48.320Z,101644.22
2023-05-08T18:40:15.226Z,101653.81
2023-05-08T18:42:41.904Z,101659.75
2023-05-08T18:45:09.165Z,101653.75
2023-05-08T18:47:35.687Z,101647.06
2023-05-08T18:50:02.181Z,101654.19
2023-05-08T18:52:28.712Z,101649.97
2023-05-08T18:54:55.502Z,101658.38
2023-05-08T18:57:21.936Z,101651.97
2023-05-08T18:59:48.444Z,101649.16
2023-05-08T19:02:14.972Z,101654.34
2023-05-08T19:04:41.451Z,101650.72
2023-05-08T19:07:08.000Z,101643.16
2023-05-08T19:09:34.487Z,101635.72
2023-05-08T19:12:00.909Z,101640.78
2023-05-08T19:14:27.370Z,101641.69
2023-05-08T19:16:55.056Z,101637.34
2023-05-08T19:19:23.588Z,101637.16
2023-05-08T19:21:50.019Z,101635.78
2023-05-08T19:24:20.446Z,101634.59
2023-05-08T19:26:47.335Z,101632.72
2023-05-08T19:29:13.831Z,101639.22
2023-05-08T19:31:40.504Z,101644.50
2023-05-08T19:34:07.267Z,101651.19
2023-05-08T19:36:36.046Z,101640.75
2023-05-08T19:39:04.034Z,101643.69
2023-05-08T19:41:30.659Z,101654.78
2023-05-08T19:43:57.152Z,101661.25
2023-05-08T19:46:23.727Z,101653.94
2023-05-08T19:48:50.434Z,101658.63
2023-05-08T19:51:16.891Z,101651.47
2023-05-08T19:53:43.388Z,101663.22
2023-05-08T19:56:09.880Z,101653.94
2023-05-08T19:58:36.357Z,101652.22
2023-05-08T20:01:02.969Z,101643.53
2023-05-08T20:03:29.563Z,101639.31
2023-05-08T20:05:56.579Z,101639.75
2023-05-08T20:08:23.100Z,101634.50
2023-05-08T20:10:49.649Z,101645.72
2023-05-08T20:13:17.377Z,101646.28
2023-05-08T20:15:43.998Z,101644.84
2023-05-08T20:18:10.537Z,101649.38
2023-05-08T20:20:37.093Z,101649.38
2023-05-08T20:23:04.270Z,101653.25
2023-05-08T20:25:30.903Z,101658.88
2023-05-08T20:27:57.349Z,101665.81
2023-05-08T20:30:24.061Z,101675.22
2023-05-08T20:32:50.613Z,101669.63
2023-05-08T20:35:17.128Z,101667.41
2023-05-08T20:37:44.550Z,101670.00
2023-05-08T20:40:11.832Z,101671.44
2023-05-08T20:42:38.727Z,101672.94
2023-05-08T20:45:05.728Z,101669.75
2023-05-08T20:47:32.267Z,101671.44
2023-05-08T20:49:58.715Z,101675.16
2023-05-08T20:52:25.248Z,101669.19
2023-05-08T20:54:51.765Z,101673.72
2023-05-08T20:57:18.416Z,101676.13
2023-05-08T20:59:47.247Z,101670.56
2023-05-08T21:02:14.021Z,101670.78
2023-05-08T21:04:40.588Z,101666.03
2023-05-08T21:07:07.212Z,101670.56
2023-05-08T21:09:33.667Z,101664.59
2023-05-08T21:12:00.641Z,101658.25
2023-05-08T21:14:27.169Z,101662.94
2023-05-08T21:16:56.469Z,101661.00
2023-05-08T21:19:23.682Z,101648.66
2023-05-08T21:21:50.131Z,101656.06
2023-05-08T21:24:16.611Z,101650.38
2023-05-08T21:26:43.285Z,101647.13
2023-05-08T21:29:10.804Z,101648.34
2023-05-08T21:31:37.449Z,101635.50
2023-05-08T21:34:04.298Z,101633.72
2023-05-08T21:36:32.112Z,101630.81
2023-05-08T21:38:58.672Z,101626.38
2023-05-08T21:41:25.226Z,101628.56
2023-05-08T21:43:51.628Z,101624.03
2023-05-08T21:46:18.175Z,101625.38
2023-05-08T21:48:44.641Z,101638.47
2023-05-08T21:51:11.123Z,101631.69
2023-05-08T21:53:37.807Z,101618.88
2023-05-08T21:56:04.496Z,101622.31
2023-05-08T21:58:30.968Z,101618.28
2023-05-08T22:00:58.651Z,101617.75
2023-05-08T22:03:25.721Z,101617.22
2023-05-08T22:05:52.274Z,101609.94
2023-05-08T22:08:18.710Z,101609.59
2023-05-08T22:10:46.241Z,101604.50
2023-05-08T22:13:13.429Z,101598.47
2023-05-08T22:15:39.939Z,101600.25
2023-05-08T22:18:06.491Z,101607.75
2023-05-08T22:20:33.331Z,101600.91
2023-05-08T22:22:59.856Z,101599.25
2023-05-08T22:25:26.956Z,101587.16
2023-05-08T22:27:53.520Z,101597.69
2023-05-08T22:30:19.981Z,101584.19
2023-05-08T22:32:54.070Z,101585.94
2023-05-08T22:35:25.790Z,101585.28
2023-05-08T22:37:53.165Z,101591.69
2023-05-08T22:40:20.840Z,101580.72
2023-05-08T22:42:47.560Z,101586.47
2023-05-08T22:45:14.582Z,101573.06
2023-05-08T22:47:41.615Z,101575.25
2023-05-08T22:50:09.328Z,101564.44
2023-05-08T22:52:36.702Z,101562.63
2023-05-08T22:55:04.092Z,101561.13
2023-05-08T22:57:30.840Z,101552.94
2023-05-08T22:59:57.415Z,101539.19
2023-05-08T23:02:24.168Z,101534.63
2023-05-08T23:04:50.757Z,101524.59
2023-05-08T23:07:17.377Z,101518.78
2023-05-08T23:09:43.807Z,101518.41
2023-05-08T23:12:10.303Z,101516.25
2023-05-08T23:14:36.748Z,101521.00
2023-05-08T23:17:03.174Z,101524.66
2023-05-08T23:19:29.781Z,101523.31
2023-05-08T23:21:56.392Z,101522.41
2023-05-08T23:24:22.849Z,101523.97
2023-05-08T23:26:49.887Z,101521.41
2023-05-08T23:29:16.412Z,101509.94
2023-05-08T23:31:42.862Z,101507.84
2023-05-08T23:34:09.365Z,101512.78
2023-05-08T23:36:35.860Z,101510.13
2023-05-08T23:39:02.275Z,101507.84
2023-05-08T23:41:28.696Z,101499.59
2023-05-08T23:43:55.314Z,101495.22
2023-05-08T23:46:21.986Z,101495.72
2023-05-08T23:48:48.490Z,101492.25
2023-05-08T23:51:14.864Z,101485.69
2023-05-08T23:53:42.182Z,101493.31
2023-05-08T23:56:08.898Z,101498.13
2023-05-08T23:58:35.457Z,101502.19
